首页
METAR-TAF:

METAR-TAF

机场 :

Sandpoint Airport (Dave Wall Field)

桑德波因特, 爱达荷州, 美国

纬度: 48-17-58N, 经度: 116-33-36W, 海拔: 648米

当前天气观测

该预报发布于21分钟前的10:55 UTC
静风
温度 0°C
湿度 93%
气压 1018 hPa
能見度: 11.3公里
天空无云

METAR: KSZT 151055Z AUTO 00000KT 7SM CLR 00/M01 A3007 RMK AO2

时间: 03:16 (11:16 UTC)


TAF: 丢失

超过4000个机场的气象观测和天气预报(METAR&TAF报告)。

可查询的气象台以黄色和红色小点在地图上表示。

将鼠标移到小点上方,可查看气象台名称。

然后点击查看天气观测和预报。

如需切换地图:点击带黑十字的绿色按钮放大地图;点击带横线的绿色按钮缩小地图;或者点击绿色箭头查看邻近地区的地图。


METAR-TAF: